sensor_id;sensor_type;location;lat;lon;timestamp;pressure;altitude;pressure_sealevel;temperature;humidity
10948;BME280;5526;42.070;24.752;2023-04-01T00:02:00;98126.41;;;11.40;79.62
10948;BME280;5526;42.070;24.752;2023-04-01T00:04:27;98114.03;;;11.41;80.09
10948;BME280;5526;42.070;24.752;2023-04-01T00:06:54;98117.16;;;11.43;79.92
10948;BME280;5526;42.070;24.752;2023-04-01T00:09:23;98118.97;;;11.47;79.66
10948;BME280;5526;42.070;24.752;2023-04-01T00:11:51;98127.16;;;11.46;79.72
10948;BME280;5526;42.070;24.752;2023-04-01T00:14:19;98125.84;;;11.43;79.82
10948;BME280;5526;42.070;24.752;2023-04-01T00:16:46;98123.44;;;11.47;79.46
10948;BME280;5526;42.070;24.752;2023-04-01T00:19:15;98124.69;;;11.54;78.99
10948;BME280;5526;42.070;24.752;2023-04-01T00:21:43;98131.81;;;11.54;78.69
10948;BME280;5526;42.070;24.752;2023-04-01T00:24:10;98124.97;;;11.53;78.31
10948;BME280;5526;42.070;24.752;2023-04-01T00:26:39;98126.59;;;11.49;77.92
10948;BME280;5526;42.070;24.752;2023-04-01T00:29:09;98127.34;;;11.49;78.04
10948;BME280;5526;42.070;24.752;2023-04-01T00:31:36;98121.22;;;11.30;78.10
10948;BME280;5526;42.070;24.752;2023-04-01T00:34:03;98122.69;;;11.18;78.32
10948;BME280;5526;42.070;24.752;2023-04-01T00:36:30;98129.59;;;11.14;78.55
10948;BME280;5526;42.070;24.752;2023-04-01T00:38:57;98126.47;;;11.07;78.70
10948;BME280;5526;42.070;24.752;2023-04-01T00:41:27;98130.66;;;11.08;78.33
10948;BME280;5526;42.070;24.752;2023-04-01T00:44:14;98131.19;;;11.10;78.05
10948;BME280;5526;42.070;24.752;2023-04-01T00:46:43;98133.78;;;11.15;78.04
10948;BME280;5526;42.070;24.752;2023-04-01T00:49:12;98127.97;;;11.18;77.46
10948;BME280;5526;42.070;24.752;2023-04-01T00:51:41;98117.69;;;11.16;77.35
10948;BME280;5526;42.070;24.752;2023-04-01T00:54:09;98125.66;;;11.11;77.41
10948;BME280;5526;42.070;24.752;2023-04-01T00:56:41;98118.63;;;11.02;77.87
10948;BME280;5526;42.070;24.752;2023-04-01T00:59:21;98119.13;;;11.04;77.82
10948;BME280;5526;42.070;24.752;2023-04-01T01:01:52;98123.09;;;11.01;78.08
10948;BME280;5526;42.070;24.752;2023-04-01T01:04:24;98117.84;;;11.01;77.91
10948;BME280;5526;42.070;24.752;2023-04-01T01:07:00;98109.13;;;11.06;78.12
10948;BME280;5526;42.070;24.752;2023-04-01T01:09:41;98104.88;;;11.10;78.38
10948;BME280;5526;42.070;24.752;2023-04-01T01:12:13;98114.53;;;11.14;78.79
10948;BME280;5526;42.070;24.752;2023-04-01T01:14:53;98114.53;;;11.19;79.04
10948;BME280;5526;42.070;24.752;2023-04-01T01:17:32;98117.44;;;11.13;79.91
10948;BME280;5526;42.070;24.752;2023-04-01T01:20:28;98110.41;;;11.08;81.23
10948;BME280;5526;42.070;24.752;2023-04-01T01:23:17;98106.44;;;11.11;80.51
10948;BME280;5526;42.070;24.752;2023-04-01T01:26:00;98102.19;;;11.15;80.66
10948;BME280;5526;42.070;24.752;2023-04-01T01:28:38;98114.41;;;11.01;81.93
10948;BME280;5526;42.070;24.752;2023-04-01T01:31:13;98112.44;;;10.88;83.23
10948;BME280;5526;42.070;24.752;2023-04-01T01:33:57;98114.00;;;10.89;83.34
10948;BME280;5526;42.070;24.752;2023-04-01T01:36:33;98109.84;;;10.83;83.63
10948;BME280;5526;42.070;24.752;2023-04-01T01:39:01;98109.84;;;10.83;83.84
10948;BME280;5526;42.070;24.752;2023-04-01T01:41:31;98108.09;;;10.73;84.16
10948;BME280;5526;42.070;24.752;2023-04-01T01:43:59;98112.00;;;10.76;84.55
10948;BME280;5526;42.070;24.752;2023-04-01T01:46:30;98098.53;;;10.82;84.54
10948;BME280;5526;42.070;24.752;2023-04-01T01:49:00;98106.41;;;10.82;85.02
10948;BME280;5526;42.070;24.752;2023-04-01T01:51:32;98105.31;;;10.88;85.30
10948;BME280;5526;42.070;24.752;2023-04-01T01:54:00;98095.03;;;10.92;85.50
10948;BME280;5526;42.070;24.752;2023-04-01T01:56:28;98096.84;;;10.96;85.45
10948;BME280;5526;42.070;24.752;2023-04-01T01:58:58;98093.06;;;11.02;85.64
10948;BME280;5526;42.070;24.752;2023-04-01T02:01:28;98092.25;;;11.07;85.84
10948;BME280;5526;42.070;24.752;2023-04-01T02:03:58;98089.56;;;11.12;85.52
10948;BME280;5526;42.070;24.752;2023-04-01T02:06:27;98077.69;;;11.14;85.22
10948;BME280;5526;42.070;24.752;2023-04-01T02:08:59;98061.06;;;11.19;85.39
10948;BME280;5526;42.070;24.752;2023-04-01T02:11:30;98055.78;;;11.19;85.04
10948;BME280;5526;42.070;24.752;2023-04-01T02:14:03;98048.38;;;11.21;85.27
10948;BME280;5526;42.070;24.752;2023-04-01T02:16:36;98044.91;;;11.25;84.51
10948;BME280;5526;42.070;24.752;2023-04-01T02:19:09;98058.81;;;11.31;83.79
10948;BME280;5526;42.070;24.752;2023-04-01T02:21:39;98066.31;;;11.19;83.98
10948;BME280;5526;42.070;24.752;2023-04-01T02:24:12;98067.53;;;11.03;85.37
10948;BME280;5526;42.070;24.752;2023-04-01T02:26:41;98075.03;;;10.91;86.26
10948;BME280;5526;42.070;24.752;2023-04-01T02:29:11;98073.50;;;10.85;87.49
10948;BME280;5526;42.070;24.752;2023-04-01T02:31:41;98073.47;;;10.90;87.18
10948;BME280;5526;42.070;24.752;2023-04-01T02:34:09;98061.59;;;10.92;87.19
10948;BME280;5526;42.070;24.752;2023-04-01T02:36:37;98056.81;;;10.94;87.38
10948;BME280;5526;42.070;24.752;2023-04-01T02:39:05;98053.66;;;10.97;86.70
10948;BME280;5526;42.070;24.752;2023-04-01T02:41:40;98058.31;;;11.05;86.80
10948;BME280;5526;42.070;24.752;2023-04-01T02:44:08;98058.56;;;11.04;86.67
10948;BME280;5526;42.070;24.752;2023-04-01T02:46:35;98063.28;;;11.07;86.64
10948;BME280;5526;42.070;24.752;2023-04-01T02:49:04;98068.28;;;11.08;86.44
10948;BME280;5526;42.070;24.752;2023-04-01T02:51:31;98075.91;;;11.10;86.59
10948;BME280;5526;42.070;24.752;2023-04-01T02:53:58;98071.06;;;11.17;86.08
10948;BME280;5526;42.070;24.752;2023-04-01T02:56:26;98072.66;;;11.18;86.09
10948;BME280;5526;42.070;24.752;2023-04-01T02:58:56;98069.50;;;11.16;85.75
10948;BME280;5526;42.070;24.752;2023-04-01T03:01:23;98074.91;;;11.06;86.08
10948;BME280;5526;42.070;24.752;2023-04-01T03:03:50;98065.69;;;11.03;86.00
10948;BME280;5526;42.070;24.752;2023-04-01T03:06:17;98059.41;;;10.99;86.33
10948;BME280;5526;42.070;24.752;2023-04-01T03:08:44;98049.00;;;10.89;87.12
10948;BME280;5526;42.070;24.752;2023-04-01T03:11:12;98047.28;;;10.75;87.78
10948;BME280;5526;42.070;24.752;2023-04-01T03:13:41;98043.06;;;10.74;87.16
10948;BME280;5526;42.070;24.752;2023-04-01T03:16:11;98054.16;;;10.71;87.36
10948;BME280;5526;42.070;24.752;2023-04-01T03:18:39;98057.81;;;10.75;87.15
10948;BME280;5526;42.070;24.752;2023-04-01T03:21:16;98056.31;;;10.64;87.18
10948;BME280;5526;42.070;24.752;2023-04-01T03:23:45;98056.31;;;10.64;86.58
10948;BME280;5526;42.070;24.752;2023-04-01T03:26:12;98053.44;;;10.60;87.18
10948;BME280;5526;42.070;24.752;2023-04-01T03:28:41;98053.41;;;10.65;86.49
10948;BME280;5526;42.070;24.752;2023-04-01T03:31:08;98045.31;;;10.57;86.47
10948;BME280;5526;42.070;24.752;2023-04-01T03:33:37;98039.31;;;10.51;86.72
10948;BME280;5526;42.070;24.752;2023-04-01T03:36:05;98034.34;;;10.50;87.53
10948;BME280;5526;42.070;24.752;2023-04-01T03:38:35;98015.22;;;10.39;87.30
10948;BME280;5526;42.070;24.752;2023-04-01T03:41:02;98025.69;;;10.44;87.17
10948;BME280;5526;42.070;24.752;2023-04-01T03:43:30;98027.28;;;10.45;87.51
10948;BME280;5526;42.070;24.752;2023-04-01T03:45:58;98025.00;;;10.34;88.13
10948;BME280;5526;42.070;24.752;2023-04-01T03:48:25;98020.59;;;10.29;87.88
10948;BME280;5526;42.070;24.752;2023-04-01T03:50:55;98029.19;;;10.35;86.92
10948;BME280;5526;42.070;24.752;2023-04-01T03:53:24;98035.34;;;10.25;87.42
10948;BME280;5526;42.070;24.752;2023-04-01T03:55:52;98028.25;;;10.21;87.23
10948;BME280;5526;42.070;24.752;2023-04-01T03:58:19;98039.03;;;10.19;87.12
10948;BME280;5526;42.070;24.752;2023-04-01T04:00:46;98019.09;;;10.18;86.83
10948;BME280;5526;42.070;24.752;2023-04-01T04:03:13;98017.25;;;10.14;88.24
10948;BME280;5526;42.070;24.752;2023-04-01T04:05:46;98006.00;;;10.08;88.76
10948;BME280;5526;42.070;24.752;2023-04-01T04:08:15;98018.06;;;10.14;88.44
10948;BME280;5526;42.070;24.752;2023-04-01T04:10:42;98001.75;;;10.12;89.21
10948;BME280;5526;42.070;24.752;2023-04-01T04:13:10;98003.09;;;10.10;89.37
10948;BME280;5526;42.070;24.752;2023-04-01T04:15:38;98007.28;;;10.11;90.31
10948;BME280;5526;42.070;24.752;2023-04-01T04:18:05;98012.22;;;10.17;90.46
10948;BME280;5526;42.070;24.752;2023-04-01T04:20:32;98017.19;;;10.24;90.73
10948;BME280;5526;42.070;24.752;2023-04-01T04:23:01;98023.22;;;10.29;90.05
10948;BME280;5526;42.070;24.752;2023-04-01T04:25:31;98016.56;;;10.37;90.42
10948;BME280;5526;42.070;24.752;2023-04-01T04:27:59;98010.50;;;10.41;90.34
10948;BME280;5526;42.070;24.752;2023-04-01T04:30:26;98010.50;;;10.36;90.98
10948;BME280;5526;42.070;24.752;2023-04-01T04:32:54;98021.44;;;10.48;90.94
10948;BME280;5526;42.070;24.752;2023-04-01T04:35:23;98016.66;;;10.55;90.56
10948;BME280;5526;42.070;24.752;2023-04-01T04:37:50;98015.59;;;10.56;91.01
10948;BME280;5526;42.070;24.752;2023-04-01T04:40:18;98012.38;;;10.64;91.58
10948;BME280;5526;42.070;24.752;2023-04-01T04:42:48;98016.25;;;10.72;91.88
10948;BME280;5526;42.070;24.752;2023-04-01T04:45:15;98015.72;;;10.75;91.75
10948;BME280;5526;42.070;24.752;2023-04-01T04:47:43;98018.63;;;10.73;92.19
10948;BME280;5526;42.070;24.752;2023-04-01T04:50:12;98031.91;;;10.87;91.66
10948;BME280;5526;42.070;24.752;2023-04-01T04:52:40;98026.53;;;10.97;91.26
10948;BME280;5526;42.070;24.752;2023-04-01T04:55:07;98011.06;;;10.90;91.54
10948;BME280;5526;42.070;24.752;2023-04-01T04:57:36;98031.19;;;11.05;90.95
10948;BME280;5526;42.070;24.752;2023-04-01T05:00:06;98031.81;;;11.20;90.44
10948;BME280;5526;42.070;24.752;2023-04-01T05:02:36;98029.84;;;11.31;90.34
10948;BME280;5526;42.070;24.752;2023-04-01T05:05:04;98017.56;;;11.45;90.02
10948;BME280;5526;42.070;24.752;2023-04-01T05:07:32;98014.78;;;11.55;89.27
10948;BME280;5526;42.070;24.752;2023-04-01T05:10:00;98018.81;;;11.71;89.03
10948;BME280;5526;42.070;24.752;2023-04-01T05:12:28;98013.72;;;11.79;88.68
10948;BME280;5526;42.070;24.752;2023-04-01T05:14:55;98034.59;;;11.94;88.49
10948;BME280;5526;42.070;24.752;2023-04-01T05:17:23;98027.16;;;12.15;87.49
10948;BME280;5526;42.070;24.752;2023-04-01T05:19:50;98027.59;;;12.22;86.67
10948;BME280;5526;42.070;24.752;2023-04-01T05:22:18;98011.81;;;12.35;86.08
10948;BME280;5526;42.070;24.752;2023-04-01T05:24:46;98016.56;;;12.52;85.33
10948;BME280;5526;42.070;24.752;2023-04-01T05:27:14;97999.25;;;12.59;85.14
10948;BME280;5526;42.070;24.752;2023-04-01T05:29:43;98011.69;;;12.59;86.02
10948;BME280;5526;42.070;24.752;2023-04-01T05:32:10;98009.50;;;12.47;86.90
10948;BME280;5526;42.070;24.752;2023-04-01T05:34:40;98008.06;;;12.55;86.85
10948;BME280;5526;42.070;24.752;2023-04-01T05:37:07;98010.91;;;12.58;86.90
10948;BME280;5526;42.070;24.752;2023-04-01T05:39:36;98000.63;;;12.57;87.46
10948;BME280;5526;42.070;24.752;2023-04-01T05:42:05;97991.94;;;12.56;87.94
10948;BME280;5526;42.070;24.752;2023-04-01T05:44:33;97983.00;;;12.39;89.36
10948;BME280;5526;42.070;24.752;2023-04-01T05:47:00;97965.88;;;12.36;90.69
10948;BME280;5526;42.070;24.752;2023-04-01T05:49:28;97968.47;;;12.41;91.75
10948;BME280;5526;42.070;24.752;2023-04-01T05:51:58;97961.91;;;12.39;92.10
10948;BME280;5526;42.070;24.752;2023-04-01T05:54:25;97958.47;;;12.38;91.25
10948;BME280;5526;42.070;24.752;2023-04-01T05:56:52;97952.81;;;12.45;91.28
10948;BME280;5526;42.070;24.752;2023-04-01T05:59:20;97936.97;;;12.45;91.12
10948;BME280;5526;42.070;24.752;2023-04-01T06:01:47;97942.25;;;12.45;91.07
10948;BME280;5526;42.070;24.752;2023-04-01T06:04:16;97939.03;;;12.34;91.51
10948;BME280;5526;42.070;24.752;2023-04-01T06:06:43;97946.22;;;12.29;91.86
10948;BME280;5526;42.070;24.752;2023-04-01T06:09:15;97926.31;;;12.23;91.96
10948;BME280;5526;42.070;24.752;2023-04-01T06:11:55;97945.75;;;12.27;91.96
10948;BME280;5526;42.070;24.752;2023-04-01T06:14:36;97940.06;;;12.20;91.14
10948;BME280;5526;42.070;24.752;2023-04-01T06:17:19;97923.16;;;12.21;91.74
10948;BME280;5526;42.070;24.752;2023-04-01T06:19:56;97911.50;;;12.40;91.28
10948;BME280;5526;42.070;24.752;2023-04-01T06:22:53;97909.72;;;12.36;92.34
10948;BME280;5526;42.070;24.752;2023-04-01T06:25:39;97876.13;;;11.96;92.96
10948;BME280;5526;42.070;24.752;2023-04-01T06:28:46;97906.63;;;12.15;93.63
10948;BME280;5526;42.070;24.752;2023-04-01T06:31:26;97925.88;;;12.16;93.06
10948;BME280;5526;42.070;24.752;2023-04-01T06:37:18;97913.09;;;12.09;92.75
10948;BME280;5526;42.070;24.752;2023-04-01T06:40:03;97904.78;;;12.16;92.38
10948;BME280;5526;42.070;24.752;2023-04-01T06:42:50;97919.91;;;12.10;92.74
10948;BME280;5526;42.070;24.752;2023-04-01T06:45:31;97917.16;;;12.02;93.20
10948;BME280;5526;42.070;24.752;2023-04-01T06:48:11;97925.38;;;12.14;93.94
10948;BME280;5526;42.070;24.752;2023-04-01T06:50:49;97914.00;;;12.32;92.63
10948;BME280;5526;42.070;24.752;2023-04-01T06:53:27;97914.03;;;12.45;91.39
10948;BME280;5526;42.070;24.752;2023-04-01T06:56:00;97916.19;;;12.57;90.58
10948;BME280;5526;42.070;24.752;2023-04-01T06:58:37;97932.81;;;12.71;89.69
10948;BME280;5526;42.070;24.752;2023-04-01T07:01:09;97936.63;;;12.78;89.40
10948;BME280;5526;42.070;24.752;2023-04-01T07:03:41;97940.06;;;12.92;89.32
10948;BME280;5526;42.070;24.752;2023-04-01T07:06:14;97936.66;;;13.06;89.04
10948;BME280;5526;42.070;24.752;2023-04-01T07:08:45;97917.16;;;13.29;87.86
10948;BME280;5526;42.070;24.752;2023-04-01T07:11:20;97915.66;;;13.36;87.80
10948;BME280;5526;42.070;24.752;2023-04-01T07:13:53;97912.31;;;13.44;87.65
10948;BME280;5526;42.070;24.752;2023-04-01T07:16:26;97906.66;;;13.51;87.73
10948;BME280;5526;42.070;24.752;2023-04-01T07:19:01;97899.28;;;13.61;86.42
10948;BME280;5526;42.070;24.752;2023-04-01T07:21:34;97887.19;;;13.47;87.28
10948;BME280;5526;42.070;24.752;2023-04-01T07:24:06;97891.69;;;13.46;87.34
10948;BME280;5526;42.070;24.752;2023-04-01T07:26:37;97887.47;;;13.45;87.86
10948;BME280;5526;42.070;24.752;2023-04-01T07:29:09;97877.38;;;13.47;88.41
10948;BME280;5526;42.070;24.752;2023-04-01T07:31:51;97879.56;;;13.67;86.94
10948;BME280;5526;42.070;24.752;2023-04-01T07:34:25;97879.47;;;13.72;87.08
10948;BME280;5526;42.070;24.752;2023-04-01T07:36:57;97878.00;;;13.66;86.47
10948;BME280;5526;42.070;24.752;2023-04-01T07:39:35;97887.97;;;13.69;86.09
10948;BME280;5526;42.070;24.752;2023-04-01T07:42:10;97883.28;;;13.66;86.81
10948;BME280;5526;42.070;24.752;2023-04-01T07:44:54;97871.56;;;13.59;86.58
10948;BME280;5526;42.070;24.752;2023-04-01T07:47:43;97868.34;;;13.84;84.91
10948;BME280;5526;42.070;24.752;2023-04-01T07:50:19;97873.50;;;13.67;85.44
10948;BME280;5526;42.070;24.752;2023-04-01T07:52:59;97869.72;;;13.81;84.68
10948;BME280;5526;42.070;24.752;2023-04-01T07:55:35;97872.44;;;13.90;84.68
10948;BME280;5526;42.070;24.752;2023-04-01T07:58:14;97868.34;;;14.14;84.10
10948;BME280;5526;42.070;24.752;2023-04-01T08:00:53;97874.91;;;14.39;82.29
10948;BME280;5526;42.070;24.752;2023-04-01T08:03:33;97871.06;;;14.53;80.28
10948;BME280;5526;42.070;24.752;2023-04-01T08:06:12;97868.25;;;14.50;80.28
10948;BME280;5526;42.070;24.752;2023-04-01T08:08:50;97869.16;;;14.45;79.69
10948;BME280;5526;42.070;24.752;2023-04-01T08:11:28;97863.31;;;14.65;79.53
10948;BME280;5526;42.070;24.752;2023-04-01T08:14:03;97859.50;;;14.80;78.35
10948;BME280;5526;42.070;24.752;2023-04-01T08:16:42;97855.94;;;14.93;76.96
10948;BME280;5526;42.070;24.752;2023-04-01T08:19:21;97853.28;;;14.93;78.15
10948;BME280;5526;42.070;24.752;2023-04-01T08:22:02;97838.00;;;14.98;77.67
10948;BME280;5526;42.070;24.752;2023-04-01T08:24:35;97831.47;;;15.04;77.13
10948;BME280;5526;42.070;24.752;2023-04-01T08:27:11;97829.31;;;15.06;76.65
10948;BME280;5526;42.070;24.752;2023-04-01T08:29:44;97822.88;;;14.90;76.55
10948;BME280;5526;42.070;24.752;2023-04-01T08:32:18;97825.69;;;14.85;77.12
10948;BME280;5526;42.070;24.752;2023-04-01T08:34:51;97826.75;;;14.84;76.90
10948;BME280;5526;42.070;24.752;2023-04-01T08:37:25;97821.34;;;14.89;76.43
10948;BME280;5526;42.070;24.752;2023-04-01T08:39:58;97804.94;;;14.79;77.12
10948;BME280;5526;42.070;24.752;2023-04-01T08:42:51;97814.34;;;14.93;77.18
10948;BME280;5526;42.070;24.752;2023-04-01T08:45:47;97806.69;;;15.09;75.90
10948;BME280;5526;42.070;24.752;2023-04-01T08:48:31;97790.34;;;15.24;74.21
10948;BME280;5526;42.070;24.752;2023-04-01T08:51:26;97801.28;;;15.48;73.34
10948;BME280;5526;42.070;24.752;2023-04-01T08:56:57;97788.19;;;15.43;74.58
10948;BME280;5526;42.070;24.752;2023-04-01T09:00:00;97777.72;;;15.63;74.17
10948;BME280;5526;42.070;24.752;2023-04-01T09:02:51;97772.72;;;15.62;73.57
10948;BME280;5526;42.070;24.752;2023-04-01T09:05:37;97762.81;;;15.88;71.96
10948;BME280;5526;42.070;24.752;2023-04-01T09:08:22;97760.81;;;15.76;70.76
10948;BME280;5526;42.070;24.752;2023-04-01T09:10:59;97758.66;;;15.61;71.94
10948;BME280;5526;42.070;24.752;2023-04-01T09:14:00;97751.81;;;15.60;71.81
10948;BME280;5526;42.070;24.752;2023-04-01T09:19:28;97736.13;;;15.84;70.35
10948;BME280;5526;42.070;24.752;2023-04-01T09:22:18;97728.63;;;15.86;70.19
10948;BME280;5526;42.070;24.752;2023-04-01T09:25:12;97732.41;;;15.77;69.20
10948;BME280;5526;42.070;24.752;2023-04-01T09:27:45;97727.03;;;15.56;70.75
10948;BME280;5526;42.070;24.752;2023-04-01T09:30:45;97708.88;;;15.67;70.39
10948;BME280;5526;42.070;24.752;2023-04-01T09:36:38;97699.19;;;15.71;69.52
10948;BME280;5526;42.070;24.752;2023-04-01T09:39:24;97689.44;;;15.92;68.82
10948;BME280;5526;42.070;24.752;2023-04-01T09:42:14;97687.75;;;15.87;68.52
10948;BME280;5526;42.070;24.752;2023-04-01T09:44:49;97697.66;;;16.07;67.87
10948;BME280;5526;42.070;24.752;2023-04-01T09:47:33;97692.03;;;16.09;68.19
10948;BME280;5526;42.070;24.752;2023-04-01T09:50:23;97679.75;;;16.25;67.72
10948;BME280;5526;42.070;24.752;2023-04-01T09:53:07;97688.69;;;16.49;67.28
10948;BME280;5526;42.070;24.752;2023-04-01T09:56:01;97688.63;;;16.78;66.11
10948;BME280;5526;42.070;24.752;2023-04-01T09:59:15;97697.25;;;16.75;65.39
10948;BME280;5526;42.070;24.752;2023-04-01T10:02:07;97664.97;;;16.85;64.24
10948;BME280;5526;42.070;24.752;2023-04-01T10:05:19;97686.16;;;16.94;66.29
10948;BME280;5526;42.070;24.752;2023-04-01T10:08:15;97678.38;;;16.89;65.78
10948;BME280;5526;42.070;24.752;2023-04-01T10:11:21;97666.53;;;16.86;65.40
10948;BME280;5526;42.070;24.752;2023-04-01T10:14:11;97650.97;;;16.76;66.26
10948;BME280;5526;42.070;24.752;2023-04-01T10:17:13;97651.44;;;16.78;65.28
10948;BME280;5526;42.070;24.752;2023-04-01T10:20:12;97644.47;;;16.86;64.22
10948;BME280;5526;42.070;24.752;2023-04-01T10:36:19;97610.75;;;18.15;60.05
10948;BME280;5526;42.070;24.752;2023-04-01T10:39:26;97598.00;;;18.21;59.84
10948;BME280;5526;42.070;24.752;2023-04-01T10:48:31;97571.44;;;17.73;60.11
10948;BME280;5526;42.070;24.752;2023-04-01T10:51:14;97560.47;;;17.62;61.99
10948;BME280;5526;42.070;24.752;2023-04-01T10:53:52;97568.69;;;17.69;60.28
10948;BME280;5526;42.070;24.752;2023-04-01T10:56:38;97555.59;;;17.64;59.81
10948;BME280;5526;42.070;24.752;2023-04-01T10:59:36;97534.09;;;17.69;60.90
10948;BME280;5526;42.070;24.752;2023-04-01T11:05:51;97531.97;;;17.51;60.04
10948;BME280;5526;42.070;24.752;2023-04-01T11:09:20;97525.09;;;17.62;60.06
10948;BME280;5526;42.070;24.752;2023-04-01T11:15:35;97512.69;;;18.17;59.65
10948;BME280;5526;42.070;24.752;2023-04-01T11:18:30;97506.84;;;18.67;57.82
10948;BME280;5526;42.070;24.752;2023-04-01T11:21:40;97487.13;;;18.56;57.08
10948;BME280;5526;42.070;24.752;2023-04-01T11:27:16;97506.97;;;18.43;58.08
10948;BME280;5526;42.070;24.752;2023-04-01T11:30:05;97477.59;;;18.70;56.68
10948;BME280;5526;42.070;24.752;2023-04-01T11:32:43;97456.16;;;18.36;58.79
10948;BME280;5526;42.070;24.752;2023-04-01T11:35:42;97473.69;;;18.25;58.60
10948;BME280;5526;42.070;24.752;2023-04-01T11:38:23;97477.91;;;19.27;55.00
10948;BME280;5526;42.070;24.752;2023-04-01T11:40:59;97486.03;;;18.72;57.77
10948;BME280;5526;42.070;24.752;2023-04-01T11:43:38;97482.53;;;18.68;58.28
10948;BME280;5526;42.070;24.752;2023-04-01T11:46:10;97463.31;;;18.20;59.64
10948;BME280;5526;42.070;24.752;2023-04-01T11:48:55;97466.41;;;18.22;59.74
10948;BME280;5526;42.070;24.752;2023-04-01T11:51:45;97468.03;;;18.26;59.21
10948;BME280;5526;42.070;24.752;2023-04-01T11:54:28;97473.97;;;18.20;60.03
10948;BME280;5526;42.070;24.752;2023-04-01T11:57:12;97463.38;;;18.35;60.19
10948;BME280;5526;42.070;24.752;2023-04-01T11:59:57;97470.00;;;18.02;60.65
10948;BME280;5526;42.070;24.752;2023-04-01T12:02:39;97469.31;;;18.17;60.43
10948;BME280;5526;42.070;24.752;2023-04-01T12:05:31;97461.59;;;18.27;60.51
10948;BME280;5526;42.070;24.752;2023-04-01T12:08:31;97460.69;;;18.63;58.49
10948;BME280;5526;42.070;24.752;2023-04-01T12:11:08;97448.50;;;18.93;58.61
10948;BME280;5526;42.070;24.752;2023-04-01T12:13:48;97440.91;;;19.10;56.62
10948;BME280;5526;42.070;24.752;2023-04-01T12:16:56;97431.00;;;19.11;55.55
10948;BME280;5526;42.070;24.752;2023-04-01T12:19:32;97430.34;;;19.83;54.68
10948;BME280;5526;42.070;24.752;2023-04-01T12:22:19;97415.88;;;19.84;54.38
10948;BME280;5526;42.070;24.752;2023-04-01T12:24:58;97400.97;;;20.02;53.46
10948;BME280;5526;42.070;24.752;2023-04-01T12:27:45;97396.44;;;20.25;53.48
10948;BME280;5526;42.070;24.752;2023-04-01T12:36:17;97377.97;;;20.58;51.75
10948;BME280;5526;42.070;24.752;2023-04-01T12:38:56;97380.97;;;20.79;51.14
10948;BME280;5526;42.070;24.752;2023-04-01T12:41:32;97381.97;;;21.16;50.60
10948;BME280;5526;42.070;24.752;2023-04-01T12:44:33;97375.28;;;20.80;51.79
10948;BME280;5526;42.070;24.752;2023-04-01T12:47:26;97367.53;;;21.24;50.16
10948;BME280;5526;42.070;24.752;2023-04-01T12:50:27;97375.16;;;21.52;50.63
10948;BME280;5526;42.070;24.752;2023-04-01T12:53:15;97367.03;;;21.71;49.61
10948;BME280;5526;42.070;24.752;2023-04-01T12:55:49;97358.13;;;21.63;50.16
10948;BME280;5526;42.070;24.752;2023-04-01T12:58:44;97353.47;;;21.60;50.84
10948;BME280;5526;42.070;24.752;2023-04-01T13:04:48;97339.31;;;22.66;45.82
10948;BME280;5526;42.070;24.752;2023-04-01T13:07:32;97341.66;;;22.31;46.81
10948;BME280;5526;42.070;24.752;2023-04-01T13:10:10;97340.69;;;22.49;46.62
10948;BME280;5526;42.070;24.752;2023-04-01T13:12:57;97339.63;;;22.61;46.75
10948;BME280;5526;42.070;24.752;2023-04-01T13:15:34;97321.59;;;22.14;48.50
10948;BME280;5526;42.070;24.752;2023-04-01T13:18:14;97318.75;;;22.40;48.81
10948;BME280;5526;42.070;24.752;2023-04-01T13:20:49;97315.88;;;22.19;48.08
10948;BME280;5526;42.070;24.752;2023-04-01T13:23:33;97325.22;;;21.63;49.02
10948;BME280;5526;42.070;24.752;2023-04-01T13:26:10;97324.28;;;21.81;48.48
10948;BME280;5526;42.070;24.752;2023-04-01T13:28:43;97332.47;;;20.32;52.01
10948;BME280;5526;42.070;24.752;2023-04-01T13:31:25;97339.72;;;19.71;53.90
10948;BME280;5526;42.070;24.752;2023-04-01T13:34:08;97370.50;;;18.80;55.36
10948;BME280;5526;42.070;24.752;2023-04-01T13:36:48;97402.66;;;18.56;56.65
10948;BME280;5526;42.070;24.752;2023-04-01T13:39:31;97471.22;;;17.65;59.53
10948;BME280;5526;42.070;24.752;2023-04-01T13:42:14;97471.69;;;17.43;60.99
10948;BME280;5526;42.070;24.752;2023-04-01T13:44:48;97485.44;;;17.21;61.90
10948;BME280;5526;42.070;24.752;2023-04-01T13:47:50;97522.63;;;17.09;63.60
10948;BME280;5526;42.070;24.752;2023-04-01T13:56:51;97565.16;;;16.64;71.39
10948;BME280;5526;42.070;24.752;2023-04-01T13:59:44;97544.31;;;16.98;71.47
10948;BME280;5526;42.070;24.752;2023-04-01T14:05:27;97614.78;;;16.02;76.75
10948;BME280;5526;42.070;24.752;2023-04-01T14:08:06;97621.25;;;15.92;78.86
10948;BME280;5526;42.070;24.752;2023-04-01T14:10:41;97638.50;;;15.78;82.99
10948;BME280;5526;42.070;24.752;2023-04-01T14:13:17;97642.47;;;15.55;83.63
10948;BME280;5526;42.070;24.752;2023-04-01T14:18:56;97638.00;;;15.30;84.27
10948;BME280;5526;42.070;24.752;2023-04-01T14:21:32;97622.88;;;15.30;83.55
10948;BME280;5526;42.070;24.752;2023-04-01T14:24:32;97612.28;;;15.30;84.62
10948;BME280;5526;42.070;24.752;2023-04-01T14:27:26;97616.63;;;15.43;85.92
10948;BME280;5526;42.070;24.752;2023-04-01T14:30:16;97600.09;;;15.46;86.72
10948;BME280;5526;42.070;24.752;2023-04-01T14:32:53;97589.66;;;15.41;85.88
10948;BME280;5526;42.070;24.752;2023-04-01T14:35:30;97582.34;;;15.38;85.95
10948;BME280;5526;42.070;24.752;2023-04-01T14:38:26;97571.56;;;15.43;87.04
10948;BME280;5526;42.070;24.752;2023-04-01T14:40:56;97546.88;;;15.51;85.15
10948;BME280;5526;42.070;24.752;2023-04-01T14:43:48;97548.22;;;15.66;83.39
10948;BME280;5526;42.070;24.752;2023-04-01T14:49:31;97523.13;;;16.04;83.54
10948;BME280;5526;42.070;24.752;2023-04-01T14:52:05;97522.88;;;16.18;83.84
10948;BME280;5526;42.070;24.752;2023-04-01T14:54:38;97526.22;;;16.27;81.38
10948;BME280;5526;42.070;24.752;2023-04-01T14:57:11;97529.22;;;16.25;80.11
10948;BME280;5526;42.070;24.752;2023-04-01T14:59:47;97548.91;;;16.24;78.64